Shamrock Station, Pennsylvania
Current Conditions -  °F | °C
As of 11:15 AM on Monday 22 Dec 2014 (Local Time) from KXLL Reporting Station
Overcast Overcast  
Wind Chill: 32°   Ceiling: 1400
Heat Index: 36°   Visibility: 10mi
Dew Point: 30°   Wind: 5mph
Humidity: 81%   Direction: 20°NNE
Pressure: 30.3"   Gusts: NA
Location:  40.4939°N, 75.6842°W
Report Text: KXLL 221615Z AUTO 02004KT 10SM OVC014 02/M01 A3030 RMK AO2
Loading
Personal Weather Stations






























Interactive Weather Map New forecast layout! Learn more

10-Day Weather Forecast

Advertisements
Track Severe Weather on mobile